createdAt,value
2022-08-25T00:00:16.378Z,30.59
2022-08-25T00:04:13.204Z,30.69
2022-08-25T00:08:01.386Z,31.01
2022-08-25T00:11:41.945Z,30.86
2022-08-25T00:15:29.820Z,30.86
2022-08-25T00:19:15.962Z,30.73
2022-08-25T00:22:55.904Z,31.24
2022-08-25T00:26:37.071Z,31.52
2022-08-25T00:30:23.561Z,31.19
2022-08-25T00:34:04.012Z,30.92
2022-08-25T00:37:53.935Z,30.77
2022-08-25T00:41:41.431Z,31.00
2022-08-25T00:45:29.088Z,30.96
2022-08-25T00:49:22.474Z,31.08
2022-08-25T00:53:12.808Z,31.22
2022-08-25T00:57:00.433Z,31.22
2022-08-25T01:00:51.025Z,31.13
2022-08-25T01:04:31.253Z,31.30
2022-08-25T01:08:19.237Z,31.24
2022-08-25T01:12:00.833Z,30.87
2022-08-25T01:15:41.057Z,30.54
2022-08-25T01:19:28.750Z,30.70
2022-08-25T01:23:16.423Z,30.63
2022-08-25T01:27:03.031Z,30.68
2022-08-25T01:30:50.772Z,30.48
2022-08-25T01:34:38.148Z,30.15
2022-08-25T01:38:25.827Z,29.80
2022-08-25T01:42:12.023Z,29.71
2022-08-25T01:45:53.322Z,29.86
2022-08-25T01:49:43.368Z,29.85
2022-08-25T01:53:40.295Z,29.43
2022-08-25T01:57:27.800Z,29.52
2022-08-25T02:01:15.808Z,29.44
2022-08-25T02:05:03.451Z,29.26
2022-08-25T02:08:52.161Z,29.40
2022-08-25T02:12:39.695Z,29.18
2022-08-25T02:16:19.433Z,29.08
2022-08-25T02:20:06.938Z,29.14
2022-08-25T02:23:54.439Z,29.22
2022-08-25T02:27:40.568Z,29.27
2022-08-25T02:31:20.093Z,29.27
2022-08-25T02:35:06.154Z,29.29
2022-08-25T02:38:53.736Z,29.31
2022-08-25T02:42:42.774Z,29.21
2022-08-25T02:46:30.371Z,29.25
2022-08-25T02:50:18.049Z,28.99
2022-08-25T02:54:05.635Z,28.89
2022-08-25T02:57:52.238Z,28.87
2022-08-25T03:01:31.365Z,29.06
2022-08-25T03:05:19.420Z,29.08
2022-08-25T03:08:59.601Z,28.74
2022-08-25T03:12:47.245Z,28.83
2022-08-25T03:16:34.520Z,28.93
2022-08-25T03:20:12.647Z,28.85
2022-08-25T03:24:00.134Z,28.80
2022-08-25T03:27:47.981Z,28.80
2022-08-25T03:31:28.101Z,28.56
2022-08-25T03:35:15.687Z,28.73
2022-08-25T03:39:03.208Z,29.03
2022-08-25T03:42:50.940Z,29.22
2022-08-25T03:46:41.298Z,29.08
2022-08-25T03:50:28.948Z,29.19
2022-08-25T03:54:16.987Z,29.39
2022-08-25T03:58:04.816Z,29.54
2022-08-25T04:01:54.779Z,29.49
2022-08-25T04:05:39.313Z,29.30
2022-08-25T04:09:26.626Z,29.10
2022-08-25T04:13:06.613Z,28.92
2022-08-25T04:16:39.546Z,28.70
2022-08-25T04:20:20.013Z,28.72
2022-08-25T04:23:57.502Z,28.74
2022-08-25T04:27:44.886Z,28.64
2022-08-25T04:31:24.389Z,28.37
2022-08-25T04:34:47.400Z,28.59
2022-08-25T04:38:16.832Z,28.55
2022-08-25T04:42:04.492Z,28.52
2022-08-25T04:45:41.930Z,28.49
2022-08-25T04:48:43.594Z,28.32
2022-08-25T04:52:16.359Z,28.37
2022-08-25T04:55:45.793Z,28.48
2022-08-25T04:59:34.975Z,28.59
2022-08-25T05:03:22.668Z,28.59
2022-08-25T05:07:00.235Z,28.87
2022-08-25T05:10:47.555Z,28.70
2022-08-25T05:14:26.310Z,28.92
2022-08-25T05:18:14.461Z,29.11
2022-08-25T05:22:02.002Z,29.26
2022-08-25T05:25:49.534Z,29.17
2022-08-25T05:29:37.242Z,29.18
2022-08-25T05:33:24.680Z,29.31
2022-08-25T05:37:12.757Z,29.23
2022-08-25T05:40:53.171Z,29.49
2022-08-25T05:44:40.839Z,29.65
2022-08-25T05:48:28.480Z,29.76
2022-08-25T05:52:20.051Z,29.74
2022-08-25T05:56:06.986Z,29.62
2022-08-25T05:59:37.799Z,29.95
2022-08-25T06:03:21.025Z,30.40
2022-08-25T06:06:51.566Z,30.23
2022-08-25T06:10:31.761Z,30.13
2022-08-25T06:14:12.910Z,30.34
2022-08-25T06:17:41.507Z,30.32
2022-08-25T06:21:29.613Z,30.68
2022-08-25T06:25:17.410Z,30.94
2022-08-25T06:29:05.614Z,31.50
2022-08-25T06:32:53.778Z,30.91
2022-08-25T06:36:41.700Z,30.72
2022-08-25T06:40:29.516Z,31.25
2022-08-25T06:44:17.159Z,31.12
2022-08-25T06:48:05.031Z,31.45
2022-08-25T06:51:52.731Z,32.18
2022-08-25T06:55:40.268Z,32.10
2022-08-25T06:59:32.011Z,31.67
2022-08-25T07:03:27.493Z,31.57
2022-08-25T07:07:15.470Z,32.04
2022-08-25T07:11:03.449Z,32.37
2022-08-25T07:15:09.996Z,32.85
2022-08-25T07:19:00.245Z,33.59
2022-08-25T07:22:48.007Z,33.88
2022-08-25T07:26:38.501Z,34.50
2022-08-25T07:30:26.773Z,34.42
2022-08-25T07:34:05.714Z,34.41
2022-08-25T07:37:52.186Z,34.76
2022-08-25T07:41:34.012Z,34.51
2022-08-25T07:45:21.810Z,35.00
2022-08-25T07:49:09.139Z,34.79
2022-08-25T07:53:04.308Z,34.41
2022-08-25T07:56:52.309Z,34.45
2022-08-25T08:00:39.538Z,34.60
2022-08-25T08:04:29.921Z,34.82
2022-08-25T08:08:19.027Z,35.10
2022-08-25T08:12:09.670Z,35.59
2022-08-25T08:15:57.357Z,35.39
2022-08-25T08:19:45.496Z,35.41
2022-08-25T08:23:33.215Z,34.34
2022-08-25T08:27:20.732Z,35.71
2022-08-25T08:31:10.639Z,36.44
2022-08-25T08:34:57.038Z,36.24
2022-08-25T08:38:30.621Z,35.40
2022-08-25T08:42:42.718Z,35.75
2022-08-25T08:46:39.534Z,35.13
2022-08-25T08:50:50.647Z,35.94
2022-08-25T08:54:39.296Z,36.13
2022-08-25T08:58:29.072Z,35.80
2022-08-25T09:02:16.786Z,35.43
2022-08-25T09:06:24.657Z,35.21
2022-08-25T09:10:12.182Z,35.31
2022-08-25T09:14:08.735Z,35.59
2022-08-25T09:18:02.289Z,35.57
2022-08-25T09:21:47.155Z,35.99
2022-08-25T09:25:53.153Z,35.87
2022-08-25T09:29:42.037Z,36.92
2022-08-25T09:33:35.522Z,37.82
2022-08-25T09:37:23.904Z,37.24
2022-08-25T09:41:11.028Z,37.37
2022-08-25T09:45:05.367Z,37.91
2022-08-25T09:49:02.275Z,37.37
2022-08-25T09:53:17.257Z,37.57
2022-08-25T09:57:05.411Z,37.53
2022-08-25T10:01:02.766Z,38.71
2022-08-25T10:04:53.343Z,38.91
2022-08-25T10:08:37.090Z,37.89
2022-08-25T10:12:27.911Z,38.52
2022-08-25T10:16:20.479Z,38.83
2022-08-25T10:20:12.783Z,39.77
2022-08-25T10:23:51.950Z,40.91
2022-08-25T10:27:35.681Z,40.92
2022-08-25T10:31:34.966Z,41.60
2022-08-25T10:35:34.664Z,41.46
2022-08-25T10:39:33.849Z,40.67
2022-08-25T10:43:25.754Z,40.41
2022-08-25T10:47:16.932Z,39.22
2022-08-25T10:51:04.900Z,40.93
2022-08-25T10:55:11.471Z,40.04
2022-08-25T10:59:22.817Z,40.53
2022-08-25T11:03:08.233Z,40.75
2022-08-25T11:06:56.153Z,40.73
2022-08-25T11:10:45.357Z,40.50
2022-08-25T11:14:37.111Z,40.23
2022-08-25T11:18:33.702Z,40.18
2022-08-25T11:22:39.339Z,41.09
2022-08-25T11:26:14.453Z,40.03
2022-08-25T11:30:01.368Z,40.46
2022-08-25T11:33:53.125Z,40.84
2022-08-25T11:37:41.165Z,41.46
2022-08-25T11:41:49.074Z,41.35
2022-08-25T11:45:33.839Z,41.02
2022-08-25T11:49:21.924Z,40.71
2022-08-25T11:52:55.822Z,41.26
2022-08-25T11:56:49.219Z,39.93
2022-08-25T12:00:52.372Z,39.14
2022-08-25T12:04:55.177Z,40.10
2022-08-25T12:08:52.507Z,40.14
2022-08-25T12:12:40.580Z,40.35
2022-08-25T12:16:24.325Z,39.07
2022-08-25T12:20:30.783Z,39.25
2022-08-25T12:24:18.825Z,39.10
2022-08-25T12:28:09.516Z,40.32
2022-08-25T12:31:56.368Z,42.72
2022-08-25T12:36:05.402Z,40.56
2022-08-25T12:39:55.853Z,40.59
2022-08-25T12:43:46.880Z,41.75
2022-08-25T12:47:33.038Z,41.41
2022-08-25T12:51:20.519Z,41.19
2022-08-25T12:55:04.122Z,40.67
2022-08-25T12:59:02.235Z,41.33
2022-08-25T13:03:00.843Z,41.92
2022-08-25T13:06:54.324Z,39.70
2022-08-25T13:10:57.175Z,39.24
2022-08-25T13:14:57.416Z,40.14
2022-08-25T13:18:53.327Z,41.81
2022-08-25T13:22:38.361Z,40.11
2022-08-25T13:26:23.377Z,40.02
2022-08-25T13:30:16.149Z,41.19
2022-08-25T13:34:19.359Z,41.53
2022-08-25T13:38:06.990Z,40.91
2022-08-25T13:41:57.415Z,41.08
2022-08-25T13:45:41.432Z,40.77
2022-08-25T13:49:32.450Z,40.24
2022-08-25T13:53:30.404Z,39.56
2022-08-25T13:57:30.878Z,38.98
2022-08-25T14:01:47.770Z,38.90
2022-08-25T14:05:40.384Z,39.62
2022-08-25T14:09:35.514Z,38.96
2022-08-25T14:13:31.368Z,39.99
2022-08-25T14:17:36.334Z,39.35
2022-08-25T14:21:26.263Z,39.54
2022-08-25T14:24:46.693Z,39.81
2022-08-25T14:28:07.274Z,39.09
2022-08-25T14:31:55.023Z,38.87
2022-08-25T14:35:41.849Z,38.05
2022-08-25T14:39:11.149Z,38.70
2022-08-25T14:43:02.426Z,38.66
2022-08-25T14:46:29.303Z,38.52
2022-08-25T14:50:20.834Z,38.61
2022-08-25T14:54:09.054Z,38.92
2022-08-25T14:57:59.804Z,39.64
2022-08-25T15:01:50.102Z,39.57
2022-08-25T15:05:41.523Z,38.65
2022-08-25T15:09:33.291Z,38.16
2022-08-25T15:13:21.683Z,38.06
2022-08-25T15:17:05.061Z,39.06
2022-08-25T15:20:54.949Z,38.53
2022-08-25T15:24:43.094Z,38.64
2022-08-25T15:28:32.642Z,38.90
2022-08-25T15:32:21.068Z,38.45
2022-08-25T15:36:06.682Z,39.02
2022-08-25T15:39:54.998Z,39.40
2022-08-25T15:43:44.970Z,38.41
2022-08-25T15:47:25.874Z,38.06
2022-08-25T15:51:13.593Z,37.92
2022-08-25T15:54:01.753Z,38.56
2022-08-25T15:57:29.524Z,39.21
2022-08-25T16:01:16.395Z,39.36
2022-08-25T16:05:07.160Z,39.38
2022-08-25T16:08:55.420Z,38.59
2022-08-25T16:12:37.955Z,37.77
2022-08-25T16:16:28.284Z,37.80
2022-08-25T16:20:15.992Z,37.97
2022-08-25T16:24:07.436Z,38.12
2022-08-25T16:27:48.388Z,38.47
2022-08-25T16:31:33.703Z,38.23
2022-08-25T16:35:21.818Z,38.00
2022-08-25T16:39:09.867Z,37.77
2022-08-25T16:42:37.776Z,37.90
2022-08-25T16:46:13.914Z,38.26
2022-08-25T16:50:02.039Z,38.25
2022-08-25T16:53:48.995Z,38.12
2022-08-25T16:57:37.115Z,37.98
2022-08-25T17:01:25.235Z,38.12
2022-08-25T17:05:13.417Z,38.41
2022-08-25T17:08:53.477Z,38.63
2022-08-25T17:12:41.333Z,38.50
2022-08-25T17:16:29.035Z,38.81
2022-08-25T17:20:19.217Z,38.80
2022-08-25T17:24:07.176Z,38.92
2022-08-25T17:27:32.259Z,39.36
2022-08-25T17:31:20.003Z,39.46
2022-08-25T17:35:01.042Z,39.12
2022-08-25T17:38:25.551Z,38.85
2022-08-25T17:42:02.636Z,38.82
2022-08-25T17:45:50.420Z,38.36
2022-08-25T17:49:30.077Z,37.84
2022-08-25T17:53:17.742Z,37.53
2022-08-25T17:56:59.140Z,37.56
2022-08-25T18:00:47.286Z,37.54
2022-08-25T18:04:35.511Z,37.47
2022-08-25T18:08:32.315Z,37.36
2022-08-25T18:12:23.247Z,37.30
2022-08-25T18:15:45.435Z,37.21
2022-08-25T18:19:29.808Z,37.21
2022-08-25T18:23:17.410Z,36.55
2022-08-25T18:26:56.176Z,36.37
2022-08-25T18:30:26.258Z,36.40
2022-08-25T18:34:15.490Z,36.48
2022-08-25T18:37:55.000Z,36.47
2022-08-25T18:41:32.389Z,36.14
2022-08-25T18:45:20.611Z,35.92
2022-08-25T18:49:07.534Z,35.69
2022-08-25T18:52:12.791Z,35.74
2022-08-25T18:56:03.797Z,35.89
2022-08-25T18:59:42.753Z,35.91
2022-08-25T19:02:30.510Z,35.75
2022-08-25T19:06:05.323Z,35.70
2022-08-25T19:09:10.352Z,35.79
2022-08-25T19:12:36.912Z,35.73
2022-08-25T19:16:14.055Z,35.55
2022-08-25T19:20:11.237Z,35.26
2022-08-25T19:23:27.289Z,35.19
2022-08-25T19:27:15.728Z,34.86
2022-08-25T19:30:54.467Z,34.75
2022-08-25T19:34:33.825Z,34.72
2022-08-25T19:38:33.586Z,34.65
2022-08-25T19:42:36.792Z,34.25
2022-08-25T19:46:21.077Z,34.18
2022-08-25T19:50:07.622Z,33.97
2022-08-25T19:53:57.176Z,33.76
2022-08-25T19:57:42.827Z,33.61
2022-08-25T20:01:18.191Z,33.68
2022-08-25T20:04:56.183Z,33.08
2022-08-25T20:08:44.443Z,32.71
2022-08-25T20:12:32.449Z,32.63
2022-08-25T20:16:20.360Z,32.87
2022-08-25T20:20:08.471Z,33.28
2022-08-25T20:23:45.133Z,33.06
2022-08-25T20:27:33.041Z,32.72
2022-08-25T20:31:14.621Z,32.44
2022-08-25T20:34:58.356Z,32.28
2022-08-25T20:38:46.275Z,32.26
2022-08-25T20:42:26.282Z,32.31
2022-08-25T20:46:14.941Z,32.40
2022-08-25T20:50:07.006Z,32.02
2022-08-25T20:53:46.817Z,32.11
2022-08-25T20:57:33.900Z,32.19
2022-08-25T21:01:23.074Z,32.37
2022-08-25T21:05:11.112Z,32.29
2022-08-25T21:09:00.559Z,32.14
2022-08-25T21:12:48.479Z,32.32
2022-08-25T21:16:41.051Z,32.37
2022-08-25T21:20:30.118Z,32.86
2022-08-25T21:24:16.685Z,33.22
2022-08-25T21:27:56.864Z,33.24
2022-08-25T21:31:41.050Z,33.23
2022-08-25T21:35:34.598Z,32.96
2022-08-25T21:39:22.367Z,32.93
2022-08-25T21:43:02.523Z,32.57
2022-08-25T21:46:53.934Z,32.37
2022-08-25T21:50:47.501Z,32.43
2022-08-25T21:54:35.206Z,31.98
2022-08-25T21:58:22.807Z,32.00
2022-08-25T22:02:10.735Z,31.90
2022-08-25T22:05:49.105Z,31.92
2022-08-25T22:09:36.762Z,31.98
2022-08-25T22:13:25.180Z,32.00
2022-08-25T22:17:16.506Z,31.93
2022-08-25T22:20:57.804Z,31.85
2022-08-25T22:24:45.741Z,31.76
2022-08-25T22:28:24.294Z,31.61
2022-08-25T22:32:13.843Z,31.62
2022-08-25T22:36:01.713Z,31.64
2022-08-25T22:39:50.383Z,31.68
2022-08-25T22:43:30.824Z,31.65
2022-08-25T22:47:19.417Z,31.70
2022-08-25T22:51:07.260Z,31.87
2022-08-25T22:54:52.575Z,31.75
2022-08-25T22:58:39.561Z,31.59
2022-08-25T23:02:26.003Z,31.52
2022-08-25T23:06:22.221Z,31.25
2022-08-25T23:10:12.926Z,31.40
2022-08-25T23:14:00.071Z,31.32
2022-08-25T23:17:39.682Z,31.28
2022-08-25T23:21:26.079Z,31.12
2022-08-25T23:25:15.143Z,31.02
2022-08-25T23:29:07.799Z,31.17
2022-08-25T23:33:06.441Z,31.06
2022-08-25T23:37:03.680Z,31.05
2022-08-25T23:40:51.541Z,30.90
2022-08-25T23:44:25.701Z,30.98
2022-08-25T23:48:13.490Z,30.94
2022-08-25T23:52:08.003Z,30.96
2022-08-25T23:55:56.172Z,30.92
2022-08-25T23:59:44.528Z,30.96
